createdAt,value
2018-04-27T00:00:42.776Z,9.67
2018-04-27T00:01:42.758Z,9.69
2018-04-27T00:02:42.735Z,9.74
2018-04-27T00:03:42.710Z,9.73
2018-04-27T00:04:42.692Z,9.81
2018-04-27T00:05:42.741Z,9.74
2018-04-27T00:06:42.649Z,9.81
2018-04-27T00:07:42.627Z,9.87
2018-04-27T00:08:42.609Z,9.88
2018-04-27T00:09:42.582Z,9.81
2018-04-27T00:10:42.563Z,9.76
2018-04-27T00:11:42.545Z,9.84
2018-04-27T00:12:42.518Z,9.88
2018-04-27T00:13:42.499Z,9.95
2018-04-27T00:14:42.479Z,9.87
2018-04-27T00:15:42.459Z,9.90
2018-04-27T00:16:42.434Z,9.94
2018-04-27T00:17:42.409Z,9.91
2018-04-27T00:18:42.390Z,9.94
2018-04-27T00:19:42.372Z,9.77
2018-04-27T00:20:42.345Z,9.77
2018-04-27T00:21:42.326Z,9.72
2018-04-27T00:22:42.309Z,9.73
2018-04-27T00:23:42.286Z,9.74
2018-04-27T00:24:42.262Z,9.70
2018-04-27T00:25:42.241Z,9.64
2018-04-27T00:26:42.223Z,9.66
2018-04-27T00:27:42.193Z,9.67
2018-04-27T00:28:42.172Z,9.63
2018-04-27T00:29:42.152Z,9.64
2018-04-27T00:30:42.128Z,9.66
2018-04-27T00:31:42.108Z,9.63
2018-04-27T00:32:42.100Z,9.52
2018-04-27T00:33:42.068Z,9.54
2018-04-27T00:34:42.054Z,9.54
2018-04-27T00:35:42.022Z,9.51
2018-04-27T00:36:42.004Z,9.56
2018-04-27T00:37:41.977Z,9.63
2018-04-27T00:38:41.957Z,9.52
2018-04-27T00:39:41.935Z,9.52
2018-04-27T00:40:41.913Z,9.64
2018-04-27T00:41:41.897Z,9.56
2018-04-27T00:42:41.874Z,9.54
2018-04-27T00:43:41.854Z,9.52
2018-04-27T00:44:41.826Z,9.54
2018-04-27T00:45:41.839Z,9.56
2018-04-27T00:46:41.788Z,9.59
2018-04-27T00:47:41.765Z,9.58
2018-04-27T00:48:41.740Z,9.56
2018-04-27T00:49:41.717Z,9.56
2018-04-27T00:50:41.698Z,9.58
2018-04-27T00:51:41.679Z,9.56
2018-04-27T00:52:41.652Z,9.63
2018-04-27T00:53:41.630Z,9.56
2018-04-27T00:54:41.612Z,9.52
2018-04-27T00:55:41.587Z,9.51
2018-04-27T00:56:41.567Z,9.52
2018-04-27T00:57:41.545Z,9.55
2018-04-27T00:58:41.524Z,9.54
2018-04-27T00:59:41.509Z,9.48
2018-04-27T01:00:41.484Z,9.40
2018-04-27T01:01:41.461Z,9.40
2018-04-27T01:02:41.437Z,9.36
2018-04-27T01:03:41.420Z,9.34
2018-04-27T01:04:41.403Z,9.42
2018-04-27T01:05:41.384Z,9.36
2018-04-27T01:06:41.350Z,9.33
2018-04-27T01:07:41.332Z,9.37
2018-04-27T01:08:41.312Z,9.33
2018-04-27T01:09:41.324Z,9.36
2018-04-27T01:10:41.273Z,9.42
2018-04-27T01:11:41.276Z,9.33
2018-04-27T01:12:41.226Z,9.33
2018-04-27T01:13:41.294Z,9.21
2018-04-27T01:14:41.171Z,9.21
2018-04-27T01:15:41.173Z,9.31
2018-04-27T01:16:41.135Z,9.31
2018-04-27T01:17:41.105Z,9.36
2018-04-27T01:18:41.083Z,9.36
2018-04-27T01:19:41.064Z,9.29
2018-04-27T01:20:41.044Z,9.26
2018-04-27T01:21:41.019Z,9.18
2018-04-27T01:22:40.999Z,9.31
2018-04-27T01:23:40.975Z,9.18
2018-04-27T01:24:40.956Z,9.19
2018-04-27T01:25:40.931Z,9.21
2018-04-27T01:26:40.916Z,9.24
2018-04-27T01:27:40.887Z,9.21
2018-04-27T01:28:40.898Z,9.21
2018-04-27T01:29:40.847Z,9.21
2018-04-27T01:30:40.818Z,9.21
2018-04-27T01:31:40.800Z,9.21
2018-04-27T01:32:40.775Z,9.29
2018-04-27T01:33:40.765Z,9.16
2018-04-27T01:34:40.731Z,9.24
2018-04-27T01:35:40.709Z,9.19
2018-04-27T01:36:40.692Z,9.21
2018-04-27T01:37:40.669Z,9.24
2018-04-27T01:38:40.646Z,9.27
2018-04-27T01:39:40.621Z,9.18
2018-04-27T01:40:40.605Z,9.12
2018-04-27T01:41:40.577Z,9.18
2018-04-27T01:42:40.553Z,9.16
2018-04-27T01:43:40.534Z,9.18
2018-04-27T01:44:40.512Z,9.19
2018-04-27T01:45:40.489Z,9.15
2018-04-27T01:46:40.467Z,9.13
2018-04-27T01:47:40.448Z,9.12
2018-04-27T01:48:40.423Z,9.15
2018-04-27T01:49:40.400Z,9.09
2018-04-27T01:50:40.380Z,9.09
2018-04-27T01:51:40.360Z,9.13
2018-04-27T01:52:40.333Z,9.15
2018-04-27T01:53:40.340Z,9.13
2018-04-27T01:54:40.294Z,9.16
2018-04-27T01:55:40.274Z,9.15
2018-04-27T01:56:40.246Z,9.16
2018-04-27T01:57:40.221Z,9.05
2018-04-27T01:58:40.203Z,9.19
2018-04-27T01:59:40.180Z,9.13
2018-04-27T02:00:40.159Z,9.08
2018-04-27T02:01:40.138Z,9.02
2018-04-27T02:02:40.116Z,8.99
2018-04-27T02:03:40.093Z,8.93
2018-04-27T02:04:40.069Z,8.93
2018-04-27T02:05:40.072Z,8.93
2018-04-27T02:06:40.023Z,8.96
2018-04-27T02:07:40.002Z,8.96
2018-04-27T02:08:39.989Z,8.95
2018-04-27T02:09:39.968Z,8.99
2018-04-27T02:10:39.935Z,8.96
2018-04-27T02:11:39.964Z,8.97
2018-04-27T02:12:39.933Z,9.02
2018-04-27T02:13:39.873Z,8.93
2018-04-27T02:14:39.847Z,8.99
2018-04-27T02:15:39.828Z,9.02
2018-04-27T02:16:39.821Z,9.09
2018-04-27T02:17:39.786Z,8.96
2018-04-27T02:18:39.758Z,8.97
2018-04-27T02:19:39.736Z,8.96
2018-04-27T02:20:39.755Z,8.92
2018-04-27T02:21:39.695Z,8.96
2018-04-27T02:22:39.671Z,8.93
2018-04-27T02:23:39.649Z,8.81
2018-04-27T02:24:39.652Z,8.72
2018-04-27T02:25:39.642Z,8.84
2018-04-27T02:26:39.584Z,8.79
2018-04-27T02:27:39.565Z,8.71
2018-04-27T02:28:39.543Z,8.69
2018-04-27T02:29:39.515Z,8.71
2018-04-27T02:30:39.494Z,8.63
2018-04-27T02:31:39.470Z,8.81
2018-04-27T02:32:39.447Z,8.72
2018-04-27T02:33:39.430Z,8.74
2018-04-27T02:34:39.403Z,8.78
2018-04-27T02:35:39.388Z,8.78
2018-04-27T02:36:39.360Z,8.77
2018-04-27T02:37:39.348Z,8.81
2018-04-27T02:38:39.315Z,8.74
2018-04-27T02:39:39.301Z,8.75
2018-04-27T02:40:39.275Z,8.84
2018-04-27T02:41:39.247Z,8.82
2018-04-27T02:42:39.224Z,8.68
2018-04-27T02:43:39.205Z,8.66
2018-04-27T02:44:39.186Z,8.60
2018-04-27T02:45:39.157Z,8.56
2018-04-27T02:46:39.132Z,8.63
2018-04-27T02:47:39.121Z,8.57
2018-04-27T02:48:39.103Z,8.57
2018-04-27T02:49:39.069Z,8.52
2018-04-27T02:50:39.045Z,8.53
2018-04-27T02:51:39.025Z,8.53
2018-04-27T02:52:39.010Z,8.53
2018-04-27T02:53:38.990Z,8.41
2018-04-27T02:54:38.962Z,8.41
2018-04-27T02:55:38.936Z,8.50
2018-04-27T02:56:38.913Z,8.54
2018-04-27T02:57:38.894Z,8.39
2018-04-27T02:58:38.868Z,8.41
2018-04-27T02:59:38.849Z,8.45
2018-04-27T03:00:38.829Z,8.44
2018-04-27T03:01:38.803Z,8.42
2018-04-27T03:02:38.783Z,8.49
2018-04-27T03:03:38.758Z,8.41
2018-04-27T03:04:38.736Z,8.46
2018-04-27T03:05:38.712Z,8.44
2018-04-27T03:06:38.692Z,8.39
2018-04-27T03:07:38.676Z,8.42
2018-04-27T03:08:38.645Z,8.39
2018-04-27T03:09:38.624Z,8.45
2018-04-27T03:10:38.600Z,8.41
2018-04-27T03:11:38.586Z,8.49
2018-04-27T03:12:38.590Z,8.44
2018-04-27T03:13:38.535Z,8.44
2018-04-27T03:14:38.514Z,8.42
2018-04-27T03:15:38.488Z,8.44
2018-04-27T03:16:38.468Z,8.41
2018-04-27T03:17:38.984Z,8.44
2018-04-27T03:18:38.424Z,8.53
2018-04-27T03:19:38.400Z,8.50
2018-04-27T03:20:38.383Z,8.52
2018-04-27T03:21:38.364Z,8.53
2018-04-27T03:22:38.332Z,8.52
2018-04-27T03:23:38.310Z,8.52
2018-04-27T03:24:38.293Z,8.41
2018-04-27T03:25:38.265Z,8.56
2018-04-27T03:26:38.245Z,8.53
2018-04-27T03:27:38.250Z,8.52
2018-04-27T03:28:38.204Z,8.42
2018-04-27T03:29:38.176Z,8.44
2018-04-27T03:30:38.155Z,8.38
2018-04-27T03:31:38.138Z,8.31
2018-04-27T03:32:38.114Z,8.31
2018-04-27T03:33:38.096Z,8.42
2018-04-27T03:34:38.067Z,8.32
2018-04-27T03:35:38.043Z,8.41
2018-04-27T03:36:38.020Z,8.34
2018-04-27T03:37:38.001Z,8.17
2018-04-27T03:38:37.976Z,8.08
2018-04-27T03:39:37.955Z,8.05
2018-04-27T03:40:37.933Z,8.23
2018-04-27T03:41:37.987Z,8.21
2018-04-27T03:42:37.887Z,8.18
2018-04-27T03:43:37.863Z,8.09
2018-04-27T03:44:37.840Z,8.16
2018-04-27T03:45:37.820Z,8.13
2018-04-27T03:46:37.800Z,8.21
2018-04-27T03:47:37.772Z,8.18
2018-04-27T03:48:37.759Z,8.21
2018-04-27T03:49:37.732Z,8.14
2018-04-27T03:50:37.720Z,8.06
2018-04-27T03:51:38.553Z,8.08
2018-04-27T03:52:37.718Z,8.11
2018-04-27T03:53:37.657Z,8.03
2018-04-27T03:54:37.634Z,8.03
2018-04-27T03:55:41.119Z,7.96
2018-04-27T03:57:51.977Z,7.90
2018-04-27T03:58:52.060Z,8.01
2018-04-27T04:00:46.340Z,7.95
2018-04-27T04:01:46.238Z,7.99
2018-04-27T04:03:39.951Z,8.03
2018-04-27T04:04:39.796Z,7.99
2018-04-27T04:06:33.192Z,7.96
2018-04-27T04:07:33.107Z,7.91
2018-04-27T04:08:33.088Z,7.91
2018-04-27T04:09:33.064Z,7.87
2018-04-27T04:10:33.049Z,7.88
2018-04-27T04:11:33.018Z,7.83
2018-04-27T04:12:33.004Z,7.85
2018-04-27T04:13:32.979Z,7.95
2018-04-27T04:14:32.958Z,7.93
2018-04-27T04:15:32.927Z,7.88
2018-04-27T04:16:32.911Z,7.78
2018-04-27T04:17:32.899Z,7.85
2018-04-27T04:18:32.861Z,7.81
2018-04-27T04:19:32.848Z,7.80
2018-04-27T04:20:32.820Z,7.78
2018-04-27T04:21:32.826Z,7.85
2018-04-27T04:22:32.821Z,7.80
2018-04-27T04:23:32.757Z,7.80
2018-04-27T04:24:32.722Z,7.75
2018-04-27T04:25:32.734Z,7.80
2018-04-27T04:26:32.682Z,7.90
2018-04-27T04:27:32.661Z,7.83
2018-04-27T04:28:32.632Z,7.95
2018-04-27T04:29:32.610Z,7.96
2018-04-27T04:30:32.587Z,7.93
2018-04-27T04:31:32.564Z,7.90
2018-04-27T04:32:32.539Z,8.02
2018-04-27T04:33:32.526Z,8.01
2018-04-27T04:34:32.496Z,7.99
2018-04-27T04:35:32.473Z,8.05
2018-04-27T04:36:32.449Z,8.02
2018-04-27T04:37:32.512Z,8.02
2018-04-27T04:38:32.407Z,8.06
2018-04-27T04:39:32.404Z,8.05
2018-04-27T04:40:32.362Z,8.08
2018-04-27T04:41:32.336Z,8.03
2018-04-27T04:42:32.311Z,8.05
2018-04-27T04:43:32.293Z,8.13
2018-04-27T04:44:32.271Z,8.01
2018-04-27T04:45:32.245Z,8.14
2018-04-27T04:46:32.281Z,8.01
2018-04-27T04:47:32.202Z,7.99
2018-04-27T04:48:32.178Z,7.91
2018-04-27T04:49:32.152Z,7.90
2018-04-27T04:50:32.137Z,7.95
2018-04-27T04:51:32.109Z,7.98
2018-04-27T04:52:32.183Z,7.95
2018-04-27T04:53:32.063Z,8.01
2018-04-27T04:54:32.043Z,7.99
2018-04-27T04:55:32.018Z,8.05
2018-04-27T04:56:32.044Z,8.11
2018-04-27T04:57:31.970Z,8.14
2018-04-27T04:58:31.952Z,8.23
2018-04-27T04:59:31.926Z,8.03
2018-04-27T05:00:31.922Z,8.21
2018-04-27T05:01:31.882Z,8.17
2018-04-27T05:02:31.860Z,8.21
2018-04-27T05:03:31.853Z,8.18
2018-04-27T05:04:31.824Z,8.28
2018-04-27T05:05:31.817Z,8.26
2018-04-27T05:06:31.766Z,8.26
2018-04-27T05:07:31.774Z,8.39
2018-04-27T05:08:31.723Z,8.35
2018-04-27T05:09:31.705Z,8.23
2018-04-27T05:10:31.747Z,8.32
2018-04-27T05:11:31.655Z,8.36
2018-04-27T05:12:31.635Z,8.44
2018-04-27T05:13:31.606Z,8.45
2018-04-27T05:14:31.586Z,8.41
2018-04-27T05:15:31.563Z,8.41
2018-04-27T05:16:31.539Z,8.50
2018-04-27T05:17:31.520Z,8.53
2018-04-27T05:18:31.496Z,8.52
2018-04-27T05:19:31.470Z,8.53
2018-04-27T05:20:31.448Z,8.57
2018-04-27T05:21:31.424Z,8.60
2018-04-27T05:22:31.411Z,8.64
2018-04-27T05:23:31.405Z,8.71
2018-04-27T05:24:31.366Z,8.78
2018-04-27T05:25:31.339Z,8.74
2018-04-27T05:26:31.310Z,8.69
2018-04-27T05:27:31.294Z,8.75
2018-04-27T05:28:31.279Z,8.84
2018-04-27T05:29:31.258Z,8.69
2018-04-27T05:30:31.244Z,8.81
2018-04-27T05:31:31.247Z,8.81
2018-04-27T05:32:31.184Z,8.74
2018-04-27T05:33:31.159Z,8.72
2018-04-27T05:34:31.138Z,8.81
2018-04-27T05:35:31.113Z,8.86
2018-04-27T05:36:31.086Z,8.86
2018-04-27T05:37:31.073Z,8.82
2018-04-27T05:38:31.041Z,8.84
2018-04-27T05:39:31.017Z,8.90
2018-04-27T05:40:31.064Z,8.93
2018-04-27T05:41:30.972Z,8.96
2018-04-27T05:42:30.958Z,9.00
2018-04-27T05:43:30.928Z,8.99
2018-04-27T05:44:30.913Z,9.11
2018-04-27T05:45:30.884Z,9.03
2018-04-27T05:46:30.862Z,9.12
2018-04-27T05:47:30.837Z,9.02
2018-04-27T05:48:30.812Z,9.08
2018-04-27T05:49:30.804Z,9.03
2018-04-27T05:50:30.769Z,9.13
2018-04-27T05:51:30.749Z,9.13
2018-04-27T05:52:30.729Z,9.18
2018-04-27T05:53:30.704Z,9.16
2018-04-27T05:54:30.680Z,9.22
2018-04-27T05:55:30.735Z,9.37
2018-04-27T05:56:30.638Z,9.42
2018-04-27T05:57:30.614Z,9.40
2018-04-27T05:58:30.591Z,9.49
2018-04-27T05:59:30.577Z,9.55
2018-04-27T06:00:30.550Z,9.55
2018-04-27T06:01:30.526Z,9.69
2018-04-27T06:02:30.506Z,9.69
2018-04-27T06:03:30.485Z,9.67
2018-04-27T06:04:30.461Z,9.66
2018-04-27T06:05:30.437Z,9.69
2018-04-27T06:06:30.415Z,9.69
2018-04-27T06:07:30.421Z,9.67
2018-04-27T06:08:30.372Z,9.66
2018-04-27T06:09:30.352Z,9.66
2018-04-27T06:10:30.391Z,9.62
2018-04-27T06:11:30.304Z,9.72
2018-04-27T06:12:30.284Z,9.80
2018-04-27T06:13:30.261Z,9.82
2018-04-27T06:14:30.242Z,9.92
2018-04-27T06:15:30.217Z,10.00
2018-04-27T06:16:30.232Z,9.99
2018-04-27T06:17:30.180Z,10.12
2018-04-27T06:18:30.157Z,10.00
2018-04-27T06:19:30.139Z,10.10
2018-04-27T06:20:30.128Z,10.05
2018-04-27T06:21:30.092Z,10.05
2018-04-27T06:22:30.069Z,10.02
2018-04-27T06:23:30.047Z,10.05
2018-04-27T06:24:30.074Z,10.21
2018-04-27T06:25:30.036Z,10.15
2018-04-27T06:26:30.039Z,10.28
2018-04-27T06:27:30.014Z,10.23
2018-04-27T06:28:30.730Z,10.30
2018-04-27T06:29:29.969Z,10.27
2018-04-27T06:30:29.891Z,10.41
2018-04-27T06:31:29.875Z,10.34
2018-04-27T06:32:29.849Z,10.34
2018-04-27T06:33:29.828Z,10.48
2018-04-27T06:34:29.850Z,10.48
2018-04-27T06:35:29.789Z,10.49
2018-04-27T06:36:29.763Z,10.58
2018-04-27T06:37:29.745Z,10.64
2018-04-27T06:38:29.721Z,10.61
2018-04-27T06:39:29.732Z,10.61
2018-04-27T06:40:29.676Z,10.59
2018-04-27T06:41:31.282Z,10.64
2018-04-27T06:42:29.681Z,10.67
2018-04-27T06:43:29.612Z,10.43
2018-04-27T06:44:29.614Z,10.43
2018-04-27T06:45:29.568Z,10.58
2018-04-27T06:46:29.549Z,10.55
2018-04-27T06:47:29.527Z,10.68
2018-04-27T06:48:29.558Z,10.64
2018-04-27T06:49:29.585Z,10.59
2018-04-27T06:50:29.464Z,10.58
2018-04-27T06:51:29.464Z,10.71
2018-04-27T06:52:29.464Z,10.75
2018-04-27T06:53:29.403Z,10.77
2018-04-27T06:54:29.378Z,10.76
2018-04-27T06:55:29.357Z,10.75
2018-04-27T06:56:29.338Z,10.80
2018-04-27T06:57:29.319Z,10.77
2018-04-27T06:58:29.301Z,10.87
2018-04-27T06:59:29.358Z,10.82
2018-04-27T07:00:29.250Z,10.89
2018-04-27T07:01:29.229Z,10.86
2018-04-27T07:02:29.211Z,10.87
2018-04-27T07:03:29.189Z,11.00
2018-04-27T07:04:29.171Z,11.01
2018-04-27T07:05:29.151Z,11.05
2018-04-27T07:06:29.125Z,11.05
2018-04-27T07:07:29.106Z,11.08
2018-04-27T07:08:29.084Z,11.10
2018-04-27T07:09:29.061Z,11.08
2018-04-27T07:10:29.041Z,11.22
2018-04-27T07:11:29.107Z,11.20
2018-04-27T07:12:28.999Z,11.20
2018-04-27T07:13:28.976Z,11.31
2018-04-27T07:14:28.956Z,11.23
2018-04-27T07:15:28.949Z,11.20
2018-04-27T07:16:28.917Z,11.25
2018-04-27T07:17:28.893Z,11.23
2018-04-27T07:18:28.882Z,11.30
2018-04-27T07:19:28.859Z,11.41
2018-04-27T07:20:28.830Z,11.40
2018-04-27T07:21:28.819Z,11.40
2018-04-27T07:22:28.796Z,11.33
2018-04-27T07:23:28.769Z,11.34
2018-04-27T07:24:28.750Z,11.40
2018-04-27T07:25:28.726Z,11.45
2018-04-27T07:26:28.713Z,11.45
2018-04-27T07:27:28.685Z,11.51
2018-04-27T07:28:28.666Z,11.55
2018-04-27T07:29:28.645Z,11.70
2018-04-27T07:30:28.635Z,11.76
2018-04-27T07:31:28.605Z,11.76
2018-04-27T07:32:28.584Z,11.89
2018-04-27T07:33:28.572Z,11.89
2018-04-27T07:34:28.540Z,12.03
2018-04-27T07:35:28.520Z,12.00
2018-04-27T07:36:28.500Z,11.96
2018-04-27T07:37:28.486Z,11.96
2018-04-27T07:38:28.467Z,11.93
2018-04-27T07:39:28.438Z,11.96
2018-04-27T07:40:28.418Z,11.97
2018-04-27T07:41:28.399Z,12.10
2018-04-27T07:42:28.378Z,12.17
2018-04-27T07:43:28.356Z,12.23
2018-04-27T07:44:28.345Z,12.25
2018-04-27T07:45:28.318Z,12.26
2018-04-27T07:46:28.304Z,12.18
2018-04-27T07:47:28.273Z,12.15
2018-04-27T07:48:28.259Z,12.25
2018-04-27T07:49:28.234Z,12.28
2018-04-27T07:50:28.217Z,12.39
2018-04-27T07:51:28.194Z,12.48
2018-04-27T07:52:28.177Z,12.50
2018-04-27T07:53:28.154Z,12.55
2018-04-27T07:54:28.130Z,12.66
2018-04-27T07:55:28.112Z,12.62
2018-04-27T07:56:28.097Z,12.70
2018-04-27T07:57:28.069Z,12.69
2018-04-27T07:58:28.052Z,12.61
2018-04-27T07:59:28.039Z,12.61
2018-04-27T08:00:28.040Z,12.63
2018-04-27T08:01:27.989Z,12.70
2018-04-27T08:02:28.048Z,12.58
2018-04-27T08:03:27.953Z,12.65
2018-04-27T08:04:27.934Z,12.62
2018-04-27T08:05:27.910Z,12.62
2018-04-27T08:06:27.890Z,12.70
2018-04-27T08:07:27.872Z,12.73
2018-04-27T08:08:27.852Z,12.70
2018-04-27T08:09:27.831Z,12.70
2018-04-27T08:10:27.811Z,12.66
2018-04-27T08:11:27.817Z,12.62
2018-04-27T08:12:27.772Z,12.72
2018-04-27T08:13:27.750Z,12.80
2018-04-27T08:14:27.733Z,12.87
2018-04-27T08:15:27.715Z,12.90
2018-04-27T08:16:27.693Z,13.02
2018-04-27T08:17:27.672Z,13.12
2018-04-27T08:18:27.660Z,12.99
2018-04-27T08:19:27.636Z,13.12
2018-04-27T08:20:27.613Z,13.26
2018-04-27T08:21:27.590Z,13.31
2018-04-27T08:22:27.572Z,13.40
2018-04-27T08:23:27.556Z,13.52
2018-04-27T08:24:27.535Z,13.57
2018-04-27T08:25:27.513Z,13.64
2018-04-27T08:26:27.505Z,13.64
2018-04-27T08:27:27.492Z,13.65
2018-04-27T08:28:27.461Z,13.67
2018-04-27T08:29:27.436Z,13.78
2018-04-27T08:30:27.417Z,13.86
2018-04-27T08:31:27.403Z,13.95
2018-04-27T08:32:27.374Z,14.03
2018-04-27T08:33:27.356Z,14.07
2018-04-27T08:34:27.335Z,14.11
2018-04-27T08:35:27.324Z,14.26
2018-04-27T08:36:27.296Z,14.30
2018-04-27T08:37:27.285Z,14.25
2018-04-27T08:38:27.265Z,14.16
2018-04-27T08:39:27.245Z,14.28
2018-04-27T08:40:27.231Z,14.20
2018-04-27T08:41:27.200Z,14.01
2018-04-27T08:42:27.185Z,14.05
2018-04-27T08:43:27.164Z,14.05
2018-04-27T08:44:27.146Z,14.19
2018-04-27T08:45:27.128Z,14.01
2018-04-27T08:46:27.114Z,14.20
2018-04-27T08:47:27.094Z,14.16
2018-04-27T08:48:27.081Z,14.28
2018-04-27T08:49:27.084Z,14.25
2018-04-27T08:50:27.103Z,14.20
2018-04-27T08:51:27.011Z,14.13
2018-04-27T08:52:27.013Z,13.98
2018-04-27T08:53:26.976Z,14.00
2018-04-27T08:54:26.956Z,13.95
2018-04-27T08:55:26.936Z,13.83
2018-04-27T08:56:26.920Z,13.86
2018-04-27T08:57:26.899Z,13.98
2018-04-27T08:58:26.882Z,14.18
2018-04-27T08:59:26.860Z,14.23
2018-04-27T09:00:26.843Z,14.26
2018-04-27T09:01:26.827Z,14.37
2018-04-27T09:02:26.805Z,14.48
2018-04-27T09:03:26.786Z,14.51
2018-04-27T09:04:26.772Z,14.45
2018-04-27T09:05:26.748Z,14.44
2018-04-27T09:06:26.734Z,14.51
2018-04-27T09:07:26.711Z,14.51
2018-04-27T09:08:26.695Z,14.67
2018-04-27T09:09:26.692Z,14.62
2018-04-27T09:10:26.658Z,14.56
2018-04-27T09:11:26.638Z,14.71
2018-04-27T09:12:26.619Z,14.68
2018-04-27T09:13:26.607Z,14.82
2018-04-27T09:14:26.582Z,14.90
2018-04-27T09:15:26.580Z,14.93
2018-04-27T09:16:26.554Z,14.93
2018-04-27T09:17:26.530Z,14.94
2018-04-27T09:18:26.507Z,15.07
2018-04-27T09:19:26.491Z,15.10
2018-04-27T09:20:26.471Z,15.11
2018-04-27T09:21:26.461Z,14.97
2018-04-27T09:22:26.434Z,14.96
2018-04-27T09:23:26.416Z,15.02
2018-04-27T09:24:26.397Z,15.04
2018-04-27T09:25:26.380Z,15.10
2018-04-27T09:26:26.361Z,15.02
2018-04-27T09:27:26.343Z,15.15
2018-04-27T09:28:26.329Z,15.18
2018-04-27T09:29:26.342Z,15.29
2018-04-27T09:30:26.291Z,15.41
2018-04-27T09:31:26.270Z,15.43
2018-04-27T09:32:26.252Z,15.57
2018-04-27T09:33:26.234Z,15.54
2018-04-27T09:34:26.216Z,15.52
2018-04-27T09:35:26.199Z,15.57
2018-04-27T09:36:26.178Z,15.48
2018-04-27T09:37:26.164Z,15.44
2018-04-27T09:38:26.141Z,15.43
2018-04-27T09:39:26.127Z,15.43
2018-04-27T09:40:26.107Z,15.48
2018-04-27T09:41:26.090Z,15.35
2018-04-27T09:42:26.072Z,15.41
2018-04-27T09:43:26.052Z,15.44
2018-04-27T09:44:26.042Z,15.47
2018-04-27T09:45:26.019Z,15.50
2018-04-27T09:46:25.999Z,15.41
2018-04-27T09:47:25.985Z,15.32
2018-04-27T09:48:25.965Z,15.52
2018-04-27T09:49:25.946Z,15.39
2018-04-27T09:50:25.926Z,15.51
2018-04-27T09:51:25.911Z,15.51
2018-04-27T09:52:25.893Z,15.50
2018-04-27T09:53:25.879Z,15.47
2018-04-27T09:54:25.859Z,15.45
2018-04-27T09:55:25.841Z,15.57
2018-04-27T09:56:25.822Z,15.50
2018-04-27T09:57:25.861Z,15.55
2018-04-27T09:58:25.794Z,15.59
2018-04-27T09:59:25.769Z,15.44
2018-04-27T10:00:25.756Z,15.52
2018-04-27T10:01:25.734Z,15.60
2018-04-27T10:02:25.720Z,15.62
2018-04-27T10:03:25.703Z,15.72
2018-04-27T10:04:25.681Z,15.80
2018-04-27T10:05:25.663Z,15.92
2018-04-27T10:06:25.649Z,15.90
2018-04-27T10:07:25.626Z,16.10
2018-04-27T10:08:25.629Z,16.13
2018-04-27T10:09:25.591Z,16.34
2018-04-27T10:10:25.573Z,16.22
2018-04-27T10:11:25.573Z,16.32
2018-04-27T10:12:25.540Z,16.50
2018-04-27T10:13:25.522Z,16.61
2018-04-27T10:14:25.543Z,16.72
2018-04-27T10:15:25.496Z,16.74
2018-04-27T10:16:25.470Z,16.86
2018-04-27T10:17:25.453Z,16.77
2018-04-27T10:18:25.436Z,16.94
2018-04-27T10:19:25.422Z,16.97
2018-04-27T10:20:25.484Z,16.95
2018-04-27T10:21:25.392Z,16.69
2018-04-27T10:22:25.367Z,16.80
2018-04-27T10:23:25.354Z,16.79
2018-04-27T10:24:25.335Z,16.65
2018-04-27T10:25:25.316Z,16.80
2018-04-27T10:26:25.305Z,16.86
2018-04-27T10:27:25.286Z,16.92
2018-04-27T10:28:25.270Z,17.05
2018-04-27T10:29:25.251Z,16.91
2018-04-27T10:30:25.233Z,16.89
2018-04-27T10:31:25.220Z,16.80
2018-04-27T10:32:25.203Z,17.07
2018-04-27T10:33:25.197Z,17.17
2018-04-27T10:34:25.169Z,17.27
2018-04-27T10:35:25.156Z,17.56
2018-04-27T10:36:25.137Z,17.76
2018-04-27T10:37:25.121Z,17.95
2018-04-27T10:38:25.105Z,18.31
2018-04-27T10:39:25.086Z,18.55
2018-04-27T10:40:25.074Z,18.76
2018-04-27T10:41:25.060Z,18.82
2018-04-27T10:42:25.046Z,18.98
2018-04-27T10:43:25.024Z,19.26
2018-04-27T10:44:25.013Z,19.26
2018-04-27T10:45:24.996Z,19.52
2018-04-27T10:46:24.987Z,19.71
2018-04-27T10:47:24.986Z,19.87
2018-04-27T10:48:25.003Z,20.07
2018-04-27T10:49:24.933Z,19.99
2018-04-27T10:50:24.923Z,20.17
2018-04-27T10:51:24.918Z,20.21
2018-04-27T10:52:24.899Z,20.22
2018-04-27T10:53:24.877Z,20.73
2018-04-27T10:54:24.861Z,21.19
2018-04-27T10:55:24.845Z,21.41
2018-04-27T10:56:24.835Z,21.60
2018-04-27T10:57:24.815Z,21.59
2018-04-27T10:58:24.801Z,21.29
2018-04-27T10:59:24.787Z,21.66
2018-04-27T11:00:24.773Z,21.92
2018-04-27T11:01:24.800Z,22.26
2018-04-27T11:02:24.747Z,22.88
2018-04-27T11:03:24.756Z,22.86
2018-04-27T11:04:24.726Z,23.06
2018-04-27T11:05:24.707Z,23.23
2018-04-27T11:06:24.696Z,23.21
2018-04-27T11:07:24.681Z,22.63
2018-04-27T11:08:24.668Z,22.59
2018-04-27T11:09:24.656Z,22.14
2018-04-27T11:10:24.646Z,21.69
2018-04-27T11:11:24.636Z,21.22
2018-04-27T11:12:24.619Z,20.26
2018-04-27T11:13:24.605Z,20.52
2018-04-27T11:14:24.594Z,20.77
2018-04-27T11:15:24.583Z,20.64
2018-04-27T11:16:24.568Z,20.40
2018-04-27T11:17:24.554Z,20.24
2018-04-27T11:18:24.541Z,20.19
2018-04-27T11:19:24.534Z,19.90
2018-04-27T11:20:24.532Z,19.77
2018-04-27T11:21:24.504Z,19.44
2018-04-27T11:22:24.509Z,19.67
2018-04-27T11:23:24.482Z,19.52
2018-04-27T11:24:24.468Z,19.64
2018-04-27T11:25:24.450Z,19.75
2018-04-27T11:26:24.440Z,19.78
2018-04-27T11:27:24.426Z,20.00
2018-04-27T11:28:24.410Z,20.24
2018-04-27T11:29:24.401Z,20.66
2018-04-27T11:30:25.384Z,20.30
2018-04-27T11:31:24.406Z,20.18
2018-04-27T11:32:24.356Z,20.30
2018-04-27T11:33:24.397Z,20.30
2018-04-27T11:34:24.334Z,20.34
2018-04-27T11:35:24.318Z,20.92
2018-04-27T11:36:24.303Z,21.33
2018-04-27T11:37:24.349Z,21.77
2018-04-27T11:38:24.278Z,22.25
2018-04-27T11:39:24.268Z,22.52
2018-04-27T11:40:24.256Z,22.73
2018-04-27T11:41:24.237Z,22.86
2018-04-27T11:42:24.229Z,23.11
2018-04-27T11:43:24.213Z,23.85
2018-04-27T11:44:24.231Z,23.96
2018-04-27T11:45:24.187Z,23.59
2018-04-27T11:46:24.176Z,23.23
2018-04-27T11:47:24.172Z,23.37
2018-04-27T11:48:24.160Z,23.52
2018-04-27T11:49:24.141Z,23.44
2018-04-27T11:50:24.128Z,24.43
2018-04-27T11:51:24.118Z,25.07
2018-04-27T11:52:24.107Z,25.83
2018-04-27T11:53:24.112Z,26.59
2018-04-27T11:54:24.088Z,27.58
2018-04-27T11:55:24.082Z,28.22
2018-04-27T11:56:24.075Z,28.94
2018-04-27T11:57:24.114Z,28.72
2018-04-27T11:58:24.062Z,27.52
2018-04-27T11:59:24.091Z,26.98
2018-04-27T12:00:24.035Z,26.86
2018-04-27T12:01:24.021Z,26.71
2018-04-27T12:02:24.017Z,26.97
2018-04-27T12:03:24.008Z,27.97
2018-04-27T12:04:25.661Z,28.20
2018-04-27T12:05:23.991Z,28.37
2018-04-27T12:06:23.986Z,26.64
2018-04-27T12:07:23.977Z,27.43
2018-04-27T12:08:23.972Z,28.33
2018-04-27T12:09:23.966Z,28.92
2018-04-27T12:10:23.959Z,29.62
2018-04-27T12:11:23.971Z,28.64
2018-04-27T12:12:24.024Z,27.50
2018-04-27T12:13:23.937Z,27.71
2018-04-27T12:14:23.934Z,28.23
2018-04-27T12:15:23.931Z,29.50
2018-04-27T12:16:23.929Z,30.06
2018-04-27T12:17:23.916Z,30.78
2018-04-27T12:18:23.910Z,31.54
2018-04-27T12:19:23.916Z,31.73
2018-04-27T12:20:23.897Z,31.78
2018-04-27T12:21:23.893Z,31.52
2018-04-27T12:22:23.890Z,31.54
2018-04-27T12:23:23.922Z,31.42
2018-04-27T12:24:23.917Z,31.00
2018-04-27T12:25:23.878Z,30.20
2018-04-27T12:26:23.872Z,29.39
2018-04-27T12:27:23.865Z,28.94
2018-04-27T12:28:23.857Z,28.68
2018-04-27T12:29:23.859Z,28.15
2018-04-27T12:30:23.849Z,27.61
2018-04-27T12:31:24.003Z,27.01
2018-04-27T12:32:23.837Z,26.59
2018-04-27T12:33:23.880Z,25.68
2018-04-27T12:34:23.877Z,25.15
2018-04-27T12:35:23.894Z,24.84
2018-04-27T12:36:23.810Z,24.62
2018-04-27T12:37:23.799Z,24.75
2018-04-27T12:38:23.792Z,25.77
2018-04-27T12:39:23.785Z,27.07
2018-04-27T12:40:23.838Z,26.18
2018-04-27T12:41:23.823Z,25.59
2018-04-27T12:42:23.759Z,26.91
2018-04-27T12:43:23.752Z,27.28
2018-04-27T12:44:23.740Z,28.30
2018-04-27T12:45:23.795Z,27.88
2018-04-27T12:46:23.743Z,28.62
2018-04-27T12:47:23.715Z,29.02
2018-04-27T12:48:23.751Z,28.46
2018-04-27T12:49:23.700Z,28.06
2018-04-27T12:50:23.691Z,27.52
2018-04-27T12:51:23.684Z,26.66
2018-04-27T12:52:23.679Z,26.27
2018-04-27T12:53:23.671Z,26.44
2018-04-27T12:54:23.676Z,26.34
2018-04-27T12:55:23.710Z,26.26
2018-04-27T12:56:23.668Z,25.61
2018-04-27T12:57:23.634Z,25.09
2018-04-27T12:58:23.628Z,24.86
2018-04-27T12:59:23.619Z,26.01
2018-04-27T13:00:23.613Z,26.48
2018-04-27T13:01:23.603Z,27.64
2018-04-27T13:02:23.593Z,28.50
2018-04-27T13:03:23.617Z,28.04
2018-04-27T13:04:23.576Z,27.33
2018-04-27T13:05:23.571Z,27.57
2018-04-27T13:06:23.563Z,28.80
2018-04-27T13:07:23.554Z,29.02
2018-04-27T13:08:23.554Z,28.38